sensor_id;sensor_type;location;lat;lon;timestamp;temperature;humidity
3699;DHT22;1865;50.918;7.092;2023-06-04T00:01:11;18.70;32.60
3699;DHT22;1865;50.918;7.092;2023-06-04T00:03:36;18.60;33.00
3699;DHT22;1865;50.918;7.092;2023-06-04T00:06:02;18.40;33.30
3699;DHT22;1865;50.918;7.092;2023-06-04T00:08:28;18.30;32.80
3699;DHT22;1865;50.918;7.092;2023-06-04T00:10:53;18.30;33.30
3699;DHT22;1865;50.918;7.092;2023-06-04T00:13:19;18.20;33.90
3699;DHT22;1865;50.918;7.092;2023-06-04T00:15:45;18.20;32.40
3699;DHT22;1865;50.918;7.092;2023-06-04T00:18:10;18.20;32.60
3699;DHT22;1865;50.918;7.092;2023-06-04T00:20:38;18.20;33.00
3699;DHT22;1865;50.918;7.092;2023-06-04T00:23:04;18.10;32.50
3699;DHT22;1865;50.918;7.092;2023-06-04T00:25:30;18.00;33.80
3699;DHT22;1865;50.918;7.092;2023-06-04T00:27:56;18.00;33.40
3699;DHT22;1865;50.918;7.092;2023-06-04T00:30:21;18.00;34.20
3699;DHT22;1865;50.918;7.092;2023-06-04T00:32:47;17.90;34.20
3699;DHT22;1865;50.918;7.092;2023-06-04T00:35:12;17.80;34.40
3699;DHT22;1865;50.918;7.092;2023-06-04T00:37:38;17.90;34.80
3699;DHT22;1865;50.918;7.092;2023-06-04T00:40:05;17.80;34.80
3699;DHT22;1865;50.918;7.092;2023-06-04T00:42:31;17.80;34.50
3699;DHT22;1865;50.918;7.092;2023-06-04T00:44:57;17.70;34.90
3699;DHT22;1865;50.918;7.092;2023-06-04T00:47:23;17.70;35.40
3699;DHT22;1865;50.918;7.092;2023-06-04T00:49:49;17.60;35.60
3699;DHT22;1865;50.918;7.092;2023-06-04T00:52:15;17.60;35.50
3699;DHT22;1865;50.918;7.092;2023-06-04T00:54:41;17.60;35.80
3699;DHT22;1865;50.918;7.092;2023-06-04T00:57:07;17.50;36.40
3699;DHT22;1865;50.918;7.092;2023-06-04T00:59:35;17.40;36.60
3699;DHT22;1865;50.918;7.092;2023-06-04T01:02:08;17.30;36.20
3699;DHT22;1865;50.918;7.092;2023-06-04T01:04:44;17.20;36.20
3699;DHT22;1865;50.918;7.092;2023-06-04T01:07:13;17.10;36.20
3699;DHT22;1865;50.918;7.092;2023-06-04T01:09:39;17.00;36.50
3699;DHT22;1865;50.918;7.092;2023-06-04T01:12:06;17.00;36.30
3699;DHT22;1865;50.918;7.092;2023-06-04T01:14:32;16.90;36.60
3699;DHT22;1865;50.918;7.092;2023-06-04T01:17:02;16.80;36.60
3699;DHT22;1865;50.918;7.092;2023-06-04T01:19:54;16.90;37.10
3699;DHT22;1865;50.918;7.092;2023-06-04T01:25:14;16.80;36.90
3699;DHT22;1865;50.918;7.092;2023-06-04T01:28:08;16.80;36.70
3699;DHT22;1865;50.918;7.092;2023-06-04T01:30:37;16.80;36.50
3699;DHT22;1865;50.918;7.092;2023-06-04T01:33:09;16.80;36.70
3699;DHT22;1865;50.918;7.092;2023-06-04T01:35:36;16.70;36.50
3699;DHT22;1865;50.918;7.092;2023-06-04T01:38:02;16.70;36.90
3699;DHT22;1865;50.918;7.092;2023-06-04T01:40:28;16.70;36.60
3699;DHT22;1865;50.918;7.092;2023-06-04T01:42:54;16.70;36.80
3699;DHT22;1865;50.918;7.092;2023-06-04T01:45:21;16.60;36.70
3699;DHT22;1865;50.918;7.092;2023-06-04T01:47:47;16.60;36.60
3699;DHT22;1865;50.918;7.092;2023-06-04T01:50:13;16.60;36.70
3699;DHT22;1865;50.918;7.092;2023-06-04T01:52:39;16.50;37.00
3699;DHT22;1865;50.918;7.092;2023-06-04T01:55:06;16.50;37.20
3699;DHT22;1865;50.918;7.092;2023-06-04T01:57:33;16.40;37.20
3699;DHT22;1865;50.918;7.092;2023-06-04T01:59:59;16.30;37.20
3699;DHT22;1865;50.918;7.092;2023-06-04T02:02:25;16.40;37.60
3699;DHT22;1865;50.918;7.092;2023-06-04T02:04:51;16.30;37.20
3699;DHT22;1865;50.918;7.092;2023-06-04T02:07:18;16.30;36.70
3699;DHT22;1865;50.918;7.092;2023-06-04T02:09:46;16.10;37.60
3699;DHT22;1865;50.918;7.092;2023-06-04T02:12:12;16.10;37.40
3699;DHT22;1865;50.918;7.092;2023-06-04T02:14:37;16.10;38.00
3699;DHT22;1865;50.918;7.092;2023-06-04T02:17:03;16.10;37.90
3699;DHT22;1865;50.918;7.092;2023-06-04T02:19:30;16.00;37.90
3699;DHT22;1865;50.918;7.092;2023-06-04T02:21:59;16.10;38.20
3699;DHT22;1865;50.918;7.092;2023-06-04T02:24:24;15.90;37.90
3699;DHT22;1865;50.918;7.092;2023-06-04T02:26:50;15.80;38.50
3699;DHT22;1865;50.918;7.092;2023-06-04T02:29:16;15.80;39.10
3699;DHT22;1865;50.918;7.092;2023-06-04T02:31:41;15.70;39.00
3699;DHT22;1865;50.918;7.092;2023-06-04T02:34:07;15.60;39.00
3699;DHT22;1865;50.918;7.092;2023-06-04T02:36:33;15.50;38.90
3699;DHT22;1865;50.918;7.092;2023-06-04T02:38:59;15.50;39.40
3699;DHT22;1865;50.918;7.092;2023-06-04T02:41:26;15.50;39.30
3699;DHT22;1865;50.918;7.092;2023-06-04T02:43:51;15.50;39.00
3699;DHT22;1865;50.918;7.092;2023-06-04T02:46:17;15.40;39.40
3699;DHT22;1865;50.918;7.092;2023-06-04T02:48:43;15.40;39.60
3699;DHT22;1865;50.918;7.092;2023-06-04T02:51:08;15.40;39.30
3699;DHT22;1865;50.918;7.092;2023-06-04T02:53:36;15.30;39.70
3699;DHT22;1865;50.918;7.092;2023-06-04T02:56:01;15.30;39.90
3699;DHT22;1865;50.918;7.092;2023-06-04T02:58:27;15.30;40.20
3699;DHT22;1865;50.918;7.092;2023-06-04T03:00:54;15.30;40.10
3699;DHT22;1865;50.918;7.092;2023-06-04T03:03:20;15.20;39.80
3699;DHT22;1865;50.918;7.092;2023-06-04T03:05:46;15.10;40.30
3699;DHT22;1865;50.918;7.092;2023-06-04T03:08:12;15.00;40.40
3699;DHT22;1865;50.918;7.092;2023-06-04T03:10:37;14.90;40.60
3699;DHT22;1865;50.918;7.092;2023-06-04T03:13:03;14.80;41.20
3699;DHT22;1865;50.918;7.092;2023-06-04T03:15:29;14.80;41.00
3699;DHT22;1865;50.918;7.092;2023-06-04T03:17:54;14.70;41.20
3699;DHT22;1865;50.918;7.092;2023-06-04T03:20:20;14.60;41.50
3699;DHT22;1865;50.918;7.092;2023-06-04T03:22:50;14.60;41.40
3699;DHT22;1865;50.918;7.092;2023-06-04T03:25:15;14.60;41.70
3699;DHT22;1865;50.918;7.092;2023-06-04T03:27:41;14.70;41.40
3699;DHT22;1865;50.918;7.092;2023-06-04T03:30:07;14.50;42.00
3699;DHT22;1865;50.918;7.092;2023-06-04T03:32:33;14.40;42.40
3699;DHT22;1865;50.918;7.092;2023-06-04T03:34:59;14.40;42.30
3699;DHT22;1865;50.918;7.092;2023-06-04T03:37:25;14.40;42.60
3699;DHT22;1865;50.918;7.092;2023-06-04T03:39:51;14.40;42.60
3699;DHT22;1865;50.918;7.092;2023-06-04T03:42:16;14.40;42.90
3699;DHT22;1865;50.918;7.092;2023-06-04T03:44:42;14.40;42.70
3699;DHT22;1865;50.918;7.092;2023-06-04T03:47:07;14.40;42.90
3699;DHT22;1865;50.918;7.092;2023-06-04T03:49:33;14.30;43.40
3699;DHT22;1865;50.918;7.092;2023-06-04T03:51:58;14.30;43.50
3699;DHT22;1865;50.918;7.092;2023-06-04T03:54:24;14.20;43.40
3699;DHT22;1865;50.918;7.092;2023-06-04T03:56:49;14.20;43.60
3699;DHT22;1865;50.918;7.092;2023-06-04T03:59:15;14.30;43.40
3699;DHT22;1865;50.918;7.092;2023-06-04T04:01:42;14.30;43.50
3699;DHT22;1865;50.918;7.092;2023-06-04T04:04:07;14.20;43.90
3699;DHT22;1865;50.918;7.092;2023-06-04T04:06:33;14.20;43.70
3699;DHT22;1865;50.918;7.092;2023-06-04T04:08:58;14.20;43.70
3699;DHT22;1865;50.918;7.092;2023-06-04T04:11:24;14.30;43.90
3699;DHT22;1865;50.918;7.092;2023-06-04T04:13:51;14.30;43.80
3699;DHT22;1865;50.918;7.092;2023-06-04T04:16:16;14.30;43.80
3699;DHT22;1865;50.918;7.092;2023-06-04T04:18:42;14.30;43.50
3699;DHT22;1865;50.918;7.092;2023-06-04T04:21:11;14.40;43.50
3699;DHT22;1865;50.918;7.092;2023-06-04T04:23:38;14.40;43.60
3699;DHT22;1865;50.918;7.092;2023-06-04T04:26:05;14.50;43.60
3699;DHT22;1865;50.918;7.092;2023-06-04T04:28:32;14.50;43.80
3699;DHT22;1865;50.918;7.092;2023-06-04T04:30:58;14.50;44.10
3699;DHT22;1865;50.918;7.092;2023-06-04T04:33:28;14.50;44.00
3699;DHT22;1865;50.918;7.092;2023-06-04T04:35:58;14.50;43.80
3699;DHT22;1865;50.918;7.092;2023-06-04T04:38:25;14.60;43.80
3699;DHT22;1865;50.918;7.092;2023-06-04T04:40:51;14.70;43.10
3699;DHT22;1865;50.918;7.092;2023-06-04T04:43:38;14.70;43.10
3699;DHT22;1865;50.918;7.092;2023-06-04T04:46:05;14.80;43.60
3699;DHT22;1865;50.918;7.092;2023-06-04T04:48:31;14.80;43.40
3699;DHT22;1865;50.918;7.092;2023-06-04T04:50:57;14.90;43.70
3699;DHT22;1865;50.918;7.092;2023-06-04T04:53:23;14.90;44.00
3699;DHT22;1865;50.918;7.092;2023-06-04T04:55:48;15.00;44.10
3699;DHT22;1865;50.918;7.092;2023-06-04T04:58:14;15.10;44.00
3699;DHT22;1865;50.918;7.092;2023-06-04T05:00:40;15.20;43.90
3699;DHT22;1865;50.918;7.092;2023-06-04T05:03:06;15.20;44.10
3699;DHT22;1865;50.918;7.092;2023-06-04T05:05:32;15.30;44.00
3699;DHT22;1865;50.918;7.092;2023-06-04T05:07:58;15.40;43.90
3699;DHT22;1865;50.918;7.092;2023-06-04T05:10:23;15.40;43.50
3699;DHT22;1865;50.918;7.092;2023-06-04T05:12:58;15.50;43.40
3699;DHT22;1865;50.918;7.092;2023-06-04T05:15:25;15.60;43.80
3699;DHT22;1865;50.918;7.092;2023-06-04T05:17:52;15.70;43.20
3699;DHT22;1865;50.918;7.092;2023-06-04T05:20:19;15.80;42.70
3699;DHT22;1865;50.918;7.092;2023-06-04T05:22:46;16.00;43.50
3699;DHT22;1865;50.918;7.092;2023-06-04T05:25:11;16.10;43.30
3699;DHT22;1865;50.918;7.092;2023-06-04T05:27:37;16.20;42.30
3699;DHT22;1865;50.918;7.092;2023-06-04T05:30:04;16.30;42.50
3699;DHT22;1865;50.918;7.092;2023-06-04T05:32:30;16.40;41.80
3699;DHT22;1865;50.918;7.092;2023-06-04T05:34:58;16.40;40.50
3699;DHT22;1865;50.918;7.092;2023-06-04T05:37:25;16.50;40.50
3699;DHT22;1865;50.918;7.092;2023-06-04T05:39:52;16.70;39.90
3699;DHT22;1865;50.918;7.092;2023-06-04T05:42:18;16.80;39.40
3699;DHT22;1865;50.918;7.092;2023-06-04T05:44:44;16.80;38.60
3699;DHT22;1865;50.918;7.092;2023-06-04T05:47:09;17.00;37.90
3699;DHT22;1865;50.918;7.092;2023-06-04T05:49:35;17.00;38.10
3699;DHT22;1865;50.918;7.092;2023-06-04T05:52:01;17.10;37.50
3699;DHT22;1865;50.918;7.092;2023-06-04T05:54:28;17.20;37.60
3699;DHT22;1865;50.918;7.092;2023-06-04T05:56:53;17.30;37.70
3699;DHT22;1865;50.918;7.092;2023-06-04T05:59:19;17.30;36.90
3699;DHT22;1865;50.918;7.092;2023-06-04T06:01:45;17.40;36.90
3699;DHT22;1865;50.918;7.092;2023-06-04T06:04:10;17.50;37.10
3699;DHT22;1865;50.918;7.092;2023-06-04T06:06:36;17.60;36.70
3699;DHT22;1865;50.918;7.092;2023-06-04T06:09:01;17.70;36.60
3699;DHT22;1865;50.918;7.092;2023-06-04T06:11:27;17.80;36.30
3699;DHT22;1865;50.918;7.092;2023-06-04T06:13:53;17.90;36.00
3699;DHT22;1865;50.918;7.092;2023-06-04T06:16:18;18.00;35.00
3699;DHT22;1865;50.918;7.092;2023-06-04T06:18:44;18.10;34.90
3699;DHT22;1865;50.918;7.092;2023-06-04T06:21:10;18.20;34.60
3699;DHT22;1865;50.918;7.092;2023-06-04T06:23:35;18.30;34.60
3699;DHT22;1865;50.918;7.092;2023-06-04T06:26:01;18.40;33.80
3699;DHT22;1865;50.918;7.092;2023-06-04T06:28:28;18.40;33.80
3699;DHT22;1865;50.918;7.092;2023-06-04T06:30:54;18.60;33.80
3699;DHT22;1865;50.918;7.092;2023-06-04T06:33:20;18.60;33.40
3699;DHT22;1865;50.918;7.092;2023-06-04T06:35:47;18.60;33.70
3699;DHT22;1865;50.918;7.092;2023-06-04T06:38:13;18.70;33.80
3699;DHT22;1865;50.918;7.092;2023-06-04T06:40:40;18.70;34.00
3699;DHT22;1865;50.918;7.092;2023-06-04T06:43:05;18.80;34.10
3699;DHT22;1865;50.918;7.092;2023-06-04T06:45:31;18.90;33.70
3699;DHT22;1865;50.918;7.092;2023-06-04T06:47:57;19.00;33.20
3699;DHT22;1865;50.918;7.092;2023-06-04T06:50:22;19.00;33.20
3699;DHT22;1865;50.918;7.092;2023-06-04T06:52:48;19.20;33.20
3699;DHT22;1865;50.918;7.092;2023-06-04T06:55:13;19.30;32.70
3699;DHT22;1865;50.918;7.092;2023-06-04T06:57:39;19.30;33.10
3699;DHT22;1865;50.918;7.092;2023-06-04T07:00:05;19.40;33.20
3699;DHT22;1865;50.918;7.092;2023-06-04T07:02:31;19.50;33.20
3699;DHT22;1865;50.918;7.092;2023-06-04T07:04:57;19.70;33.00
3699;DHT22;1865;50.918;7.092;2023-06-04T07:07:22;19.80;32.50
3699;DHT22;1865;50.918;7.092;2023-06-04T07:09:48;19.90;32.80
3699;DHT22;1865;50.918;7.092;2023-06-04T07:12:14;19.90;32.80
3699;DHT22;1865;50.918;7.092;2023-06-04T07:14:39;20.00;32.90
3699;DHT22;1865;50.918;7.092;2023-06-04T07:17:05;20.10;33.00
3699;DHT22;1865;50.918;7.092;2023-06-04T07:19:30;20.20;33.40
3699;DHT22;1865;50.918;7.092;2023-06-04T07:21:56;20.30;32.60
3699;DHT22;1865;50.918;7.092;2023-06-04T07:24:21;20.50;32.30
3699;DHT22;1865;50.918;7.092;2023-06-04T07:26:47;20.50;31.50
3699;DHT22;1865;50.918;7.092;2023-06-04T07:29:13;20.50;32.40
3699;DHT22;1865;50.918;7.092;2023-06-04T07:31:38;20.60;32.10
3699;DHT22;1865;50.918;7.092;2023-06-04T07:34:04;20.70;32.10
3699;DHT22;1865;50.918;7.092;2023-06-04T07:36:30;20.80;31.80
3699;DHT22;1865;50.918;7.092;2023-06-04T07:38:56;20.90;32.00
3699;DHT22;1865;50.918;7.092;2023-06-04T07:41:22;21.00;32.40
3699;DHT22;1865;50.918;7.092;2023-06-04T07:43:47;21.20;31.80
3699;DHT22;1865;50.918;7.092;2023-06-04T07:46:13;21.30;31.60
3699;DHT22;1865;50.918;7.092;2023-06-04T07:48:38;21.40;31.10
3699;DHT22;1865;50.918;7.092;2023-06-04T07:51:04;21.50;30.80
3699;DHT22;1865;50.918;7.092;2023-06-04T07:53:30;21.60;31.10
3699;DHT22;1865;50.918;7.092;2023-06-04T07:55:56;21.80;30.00
3699;DHT22;1865;50.918;7.092;2023-06-04T07:58:22;21.90;29.50
3699;DHT22;1865;50.918;7.092;2023-06-04T08:00:48;21.90;29.30
3699;DHT22;1865;50.918;7.092;2023-06-04T08:03:14;21.90;28.00
3699;DHT22;1865;50.918;7.092;2023-06-04T08:05:43;22.10;28.40
3699;DHT22;1865;50.918;7.092;2023-06-04T08:08:09;22.30;29.10
3699;DHT22;1865;50.918;7.092;2023-06-04T08:10:35;22.20;28.30
3699;DHT22;1865;50.918;7.092;2023-06-04T08:13:00;22.30;27.20
3699;DHT22;1865;50.918;7.092;2023-06-04T08:15:26;22.50;27.50
3699;DHT22;1865;50.918;7.092;2023-06-04T08:17:51;22.60;26.50
3699;DHT22;1865;50.918;7.092;2023-06-04T08:20:17;22.70;24.90
3699;DHT22;1865;50.918;7.092;2023-06-04T08:22:42;22.80;24.20
3699;DHT22;1865;50.918;7.092;2023-06-04T08:25:08;22.90;23.70
3699;DHT22;1865;50.918;7.092;2023-06-04T08:27:37;23.00;23.50
3699;DHT22;1865;50.918;7.092;2023-06-04T08:30:03;22.90;22.00
3699;DHT22;1865;50.918;7.092;2023-06-04T08:32:28;23.10;23.40
3699;DHT22;1865;50.918;7.092;2023-06-04T08:34:54;23.30;22.60
3699;DHT22;1865;50.918;7.092;2023-06-04T08:37:20;23.50;21.90
3699;DHT22;1865;50.918;7.092;2023-06-04T08:39:46;23.50;21.70
3699;DHT22;1865;50.918;7.092;2023-06-04T08:42:38;23.60;22.70
3699;DHT22;1865;50.918;7.092;2023-06-04T08:45:02;23.70;21.80
3699;DHT22;1865;50.918;7.092;2023-06-04T08:47:29;23.80;21.50
3699;DHT22;1865;50.918;7.092;2023-06-04T08:49:59;23.80;21.50
3699;DHT22;1865;50.918;7.092;2023-06-04T08:52:28;23.90;22.10
3699;DHT22;1865;50.918;7.092;2023-06-04T08:54:54;24.00;22.10
3699;DHT22;1865;50.918;7.092;2023-06-04T08:57:20;24.10;21.10
3699;DHT22;1865;50.918;7.092;2023-06-04T08:59:46;24.00;21.50
3699;DHT22;1865;50.918;7.092;2023-06-04T09:02:16;24.10;21.10
3699;DHT22;1865;50.918;7.092;2023-06-04T09:04:42;24.10;20.70
3699;DHT22;1865;50.918;7.092;2023-06-04T09:07:08;24.30;21.50
3699;DHT22;1865;50.918;7.092;2023-06-04T09:09:38;24.30;20.60
3699;DHT22;1865;50.918;7.092;2023-06-04T09:12:08;24.30;19.90
3699;DHT22;1865;50.918;7.092;2023-06-04T09:14:34;24.50;20.30
3699;DHT22;1865;50.918;7.092;2023-06-04T09:16:59;24.50;20.40
3699;DHT22;1865;50.918;7.092;2023-06-04T09:19:25;24.60;20.60
3699;DHT22;1865;50.918;7.092;2023-06-04T09:21:58;24.60;20.20
3699;DHT22;1865;50.918;7.092;2023-06-04T09:24:25;24.70;20.90
3699;DHT22;1865;50.918;7.092;2023-06-04T09:27:12;24.70;20.40
3699;DHT22;1865;50.918;7.092;2023-06-04T09:29:49;24.80;20.60
3699;DHT22;1865;50.918;7.092;2023-06-04T09:32:23;24.90;20.30
3699;DHT22;1865;50.918;7.092;2023-06-04T09:34:49;25.00;19.90
3699;DHT22;1865;50.918;7.092;2023-06-04T09:37:15;25.10;20.10
3699;DHT22;1865;50.918;7.092;2023-06-04T09:39:44;25.10;19.80
3699;DHT22;1865;50.918;7.092;2023-06-04T09:42:17;25.10;19.70
3699;DHT22;1865;50.918;7.092;2023-06-04T09:44:43;25.20;19.00
3699;DHT22;1865;50.918;7.092;2023-06-04T09:47:11;25.20;19.40
3699;DHT22;1865;50.918;7.092;2023-06-04T09:49:47;25.30;19.10
3699;DHT22;1865;50.918;7.092;2023-06-04T09:52:13;25.40;19.10
3699;DHT22;1865;50.918;7.092;2023-06-04T09:54:40;25.50;20.20
3699;DHT22;1865;50.918;7.092;2023-06-04T09:57:16;25.60;19.70
3699;DHT22;1865;50.918;7.092;2023-06-04T09:59:44;25.90;19.00
3699;DHT22;1865;50.918;7.092;2023-06-04T10:02:12;25.90;19.10
3699;DHT22;1865;50.918;7.092;2023-06-04T10:04:41;26.00;19.30
3699;DHT22;1865;50.918;7.092;2023-06-04T10:07:11;26.10;19.30
3699;DHT22;1865;50.918;7.092;2023-06-04T10:09:45;26.10;19.20
3699;DHT22;1865;50.918;7.092;2023-06-04T10:12:14;26.00;18.90
3699;DHT22;1865;50.918;7.092;2023-06-04T10:14:51;26.00;18.80
3699;DHT22;1865;50.918;7.092;2023-06-04T10:17:18;26.10;19.40
3699;DHT22;1865;50.918;7.092;2023-06-04T10:19:45;26.20;19.30
3699;DHT22;1865;50.918;7.092;2023-06-04T10:22:11;26.30;19.40
3699;DHT22;1865;50.918;7.092;2023-06-04T10:24:38;26.30;18.70
3699;DHT22;1865;50.918;7.092;2023-06-04T10:27:04;26.40;19.00
3699;DHT22;1865;50.918;7.092;2023-06-04T10:29:36;26.50;18.70
3699;DHT22;1865;50.918;7.092;2023-06-04T10:32:01;26.40;19.00
3699;DHT22;1865;50.918;7.092;2023-06-04T10:34:27;26.40;19.00
3699;DHT22;1865;50.918;7.092;2023-06-04T10:36:53;26.50;18.60
3699;DHT22;1865;50.918;7.092;2023-06-04T10:39:28;26.50;17.60
3699;DHT22;1865;50.918;7.092;2023-06-04T10:42:12;26.50;17.90
3699;DHT22;1865;50.918;7.092;2023-06-04T10:44:46;26.50;17.70
3699;DHT22;1865;50.918;7.092;2023-06-04T10:47:22;26.50;18.30
3699;DHT22;1865;50.918;7.092;2023-06-04T10:49:49;26.70;18.70
3699;DHT22;1865;50.918;7.092;2023-06-04T10:52:14;26.90;19.60
3699;DHT22;1865;50.918;7.092;2023-06-04T10:54:42;27.20;19.60
3699;DHT22;1865;50.918;7.092;2023-06-04T10:57:12;27.20;18.80
3699;DHT22;1865;50.918;7.092;2023-06-04T10:59:38;27.30;19.50
3699;DHT22;1865;50.918;7.092;2023-06-04T11:02:08;27.60;19.40
3699;DHT22;1865;50.918;7.092;2023-06-04T11:04:35;28.10;19.30
3699;DHT22;1865;50.918;7.092;2023-06-04T11:07:06;29.10;18.10
3699;DHT22;1865;50.918;7.092;2023-06-04T11:09:36;30.20;17.50
3699;DHT22;1865;50.918;7.092;2023-06-04T11:12:04;31.10;16.90
3699;DHT22;1865;50.918;7.092;2023-06-04T11:14:30;31.80;16.50
3699;DHT22;1865;50.918;7.092;2023-06-04T11:16:56;31.70;15.00
3699;DHT22;1865;50.918;7.092;2023-06-04T11:19:22;31.00;15.10
3699;DHT22;1865;50.918;7.092;2023-06-04T11:21:48;30.20;15.60
3699;DHT22;1865;50.918;7.092;2023-06-04T11:24:14;30.20;15.40
3699;DHT22;1865;50.918;7.092;2023-06-04T11:26:39;30.50;15.80
3699;DHT22;1865;50.918;7.092;2023-06-04T11:29:11;30.40;15.50
3699;DHT22;1865;50.918;7.092;2023-06-04T11:31:41;29.90;15.40
3699;DHT22;1865;50.918;7.092;2023-06-04T11:34:08;29.00;16.50
3699;DHT22;1865;50.918;7.092;2023-06-04T11:36:34;28.30;15.80
3699;DHT22;1865;50.918;7.092;2023-06-04T11:39:02;28.10;16.40
3699;DHT22;1865;50.918;7.092;2023-06-04T11:41:32;27.90;16.30
3699;DHT22;1865;50.918;7.092;2023-06-04T11:44:03;28.10;16.80
3699;DHT22;1865;50.918;7.092;2023-06-04T11:46:31;28.10;16.60
3699;DHT22;1865;50.918;7.092;2023-06-04T11:48:57;28.00;16.80
3699;DHT22;1865;50.918;7.092;2023-06-04T11:51:23;28.00;17.30
3699;DHT22;1865;50.918;7.092;2023-06-04T11:53:49;28.00;18.00
3699;DHT22;1865;50.918;7.092;2023-06-04T11:56:15;28.10;17.40
3699;DHT22;1865;50.918;7.092;2023-06-04T11:58:41;28.30;17.00
3699;DHT22;1865;50.918;7.092;2023-06-04T12:01:07;28.50;16.30
3699;DHT22;1865;50.918;7.092;2023-06-04T12:03:38;29.20;17.20
3699;DHT22;1865;50.918;7.092;2023-06-04T12:06:18;29.70;17.20
3699;DHT22;1865;50.918;7.092;2023-06-04T12:08:49;30.30;16.00
3699;DHT22;1865;50.918;7.092;2023-06-04T12:13:52;31.00;14.70
3699;DHT22;1865;50.918;7.092;2023-06-04T12:16:18;31.20;14.80
3699;DHT22;1865;50.918;7.092;2023-06-04T12:18:43;31.30;15.30
3699;DHT22;1865;50.918;7.092;2023-06-04T12:21:22;31.30;15.10
3699;DHT22;1865;50.918;7.092;2023-06-04T12:24:13;31.00;14.90
3699;DHT22;1865;50.918;7.092;2023-06-04T12:26:39;30.80;16.00
3699;DHT22;1865;50.918;7.092;2023-06-04T12:29:14;30.70;15.50
3699;DHT22;1865;50.918;7.092;2023-06-04T12:31:41;30.50;15.30
3699;DHT22;1865;50.918;7.092;2023-06-04T12:34:07;30.20;15.90
3699;DHT22;1865;50.918;7.092;2023-06-04T12:36:32;30.10;15.90
3699;DHT22;1865;50.918;7.092;2023-06-04T12:39:02;29.90;16.20
3699;DHT22;1865;50.918;7.092;2023-06-04T12:41:29;30.00;17.20
3699;DHT22;1865;50.918;7.092;2023-06-04T12:43:55;30.60;17.30
3699;DHT22;1865;50.918;7.092;2023-06-04T12:46:24;30.80;15.80
3699;DHT22;1865;50.918;7.092;2023-06-04T12:48:50;30.90;15.90
3699;DHT22;1865;50.918;7.092;2023-06-04T12:51:16;30.80;16.20
3699;DHT22;1865;50.918;7.092;2023-06-04T12:53:42;30.50;15.90
3699;DHT22;1865;50.918;7.092;2023-06-04T12:56:08;30.20;16.20
3699;DHT22;1865;50.918;7.092;2023-06-04T12:58:34;30.00;15.80
3699;DHT22;1865;50.918;7.092;2023-06-04T13:01:00;29.80;15.90
3699;DHT22;1865;50.918;7.092;2023-06-04T13:03:26;30.00;16.60
3699;DHT22;1865;50.918;7.092;2023-06-04T13:05:52;30.20;16.30
3699;DHT22;1865;50.918;7.092;2023-06-04T13:08:19;30.40;16.30
3699;DHT22;1865;50.918;7.092;2023-06-04T13:10:46;30.60;16.60
3699;DHT22;1865;50.918;7.092;2023-06-04T13:13:11;30.60;15.80
3699;DHT22;1865;50.918;7.092;2023-06-04T13:15:37;30.50;15.70
3699;DHT22;1865;50.918;7.092;2023-06-04T13:18:02;30.70;15.40
3699;DHT22;1865;50.918;7.092;2023-06-04T13:20:28;31.00;17.10
3699;DHT22;1865;50.918;7.092;2023-06-04T13:22:54;31.40;15.30
3699;DHT22;1865;50.918;7.092;2023-06-04T13:25:19;31.80;15.90
3699;DHT22;1865;50.918;7.092;2023-06-04T13:27:45;33.40;14.90
3699;DHT22;1865;50.918;7.092;2023-06-04T13:30:11;34.90;13.70
3699;DHT22;1865;50.918;7.092;2023-06-04T13:32:37;35.40;13.10
3699;DHT22;1865;50.918;7.092;2023-06-04T13:35:03;36.30;13.00
3699;DHT22;1865;50.918;7.092;2023-06-04T13:37:28;37.30;12.60
3699;DHT22;1865;50.918;7.092;2023-06-04T13:39:54;38.40;12.10
3699;DHT22;1865;50.918;7.092;2023-06-04T13:42:19;38.90;12.10
3699;DHT22;1865;50.918;7.092;2023-06-04T13:44:45;40.00;12.30
3699;DHT22;1865;50.918;7.092;2023-06-04T13:47:10;40.50;11.60
3699;DHT22;1865;50.918;7.092;2023-06-04T13:49:36;40.30;11.20
3699;DHT22;1865;50.918;7.092;2023-06-04T13:52:01;40.30;11.50
3699;DHT22;1865;50.918;7.092;2023-06-04T13:54:27;40.70;11.20
3699;DHT22;1865;50.918;7.092;2023-06-04T13:56:52;40.70;11.60
3699;DHT22;1865;50.918;7.092;2023-06-04T13:59:18;41.50;11.30
3699;DHT22;1865;50.918;7.092;2023-06-04T14:01:43;41.60;11.10
3699;DHT22;1865;50.918;7.092;2023-06-04T14:04:09;41.80;11.10
3699;DHT22;1865;50.918;7.092;2023-06-04T14:06:36;41.00;11.20
3699;DHT22;1865;50.918;7.092;2023-06-04T14:09:03;40.00;11.60
3699;DHT22;1865;50.918;7.092;2023-06-04T14:11:29;39.00;12.60
3699;DHT22;1865;50.918;7.092;2023-06-04T14:13:55;37.90;12.10
3699;DHT22;1865;50.918;7.092;2023-06-04T14:16:21;36.90;12.50
3699;DHT22;1865;50.918;7.092;2023-06-04T14:18:46;36.20;13.30
3699;DHT22;1865;50.918;7.092;2023-06-04T14:21:12;35.70;14.00
3699;DHT22;1865;50.918;7.092;2023-06-04T14:23:37;35.40;14.50
3699;DHT22;1865;50.918;7.092;2023-06-04T14:26:03;34.80;15.10
3699;DHT22;1865;50.918;7.092;2023-06-04T14:28:29;34.40;15.30
3699;DHT22;1865;50.918;7.092;2023-06-04T14:30:54;33.90;14.00
3699;DHT22;1865;50.918;7.092;2023-06-04T14:33:20;33.40;13.90
3699;DHT22;1865;50.918;7.092;2023-06-04T14:35:45;32.80;13.60
3699;DHT22;1865;50.918;7.092;2023-06-04T14:38:13;32.30;14.50
3699;DHT22;1865;50.918;7.092;2023-06-04T14:40:39;32.00;15.20
3699;DHT22;1865;50.918;7.092;2023-06-04T14:43:07;31.40;15.70
3699;DHT22;1865;50.918;7.092;2023-06-04T14:45:32;31.10;16.40
3699;DHT22;1865;50.918;7.092;2023-06-04T14:47:58;30.80;16.50
3699;DHT22;1865;50.918;7.092;2023-06-04T14:50:23;30.60;17.10
3699;DHT22;1865;50.918;7.092;2023-06-04T14:52:49;30.40;17.50
3699;DHT22;1865;50.918;7.092;2023-06-04T14:55:14;30.30;18.10
3699;DHT22;1865;50.918;7.092;2023-06-04T14:57:40;30.30;18.00
3699;DHT22;1865;50.918;7.092;2023-06-04T15:00:06;30.30;18.00
3699;DHT22;1865;50.918;7.092;2023-06-04T15:02:32;30.10;18.10
3699;DHT22;1865;50.918;7.092;2023-06-04T15:04:57;30.00;18.50
3699;DHT22;1865;50.918;7.092;2023-06-04T15:07:23;30.10;18.30
3699;DHT22;1865;50.918;7.092;2023-06-04T15:09:48;30.10;18.10
3699;DHT22;1865;50.918;7.092;2023-06-04T15:12:15;30.20;17.90
3699;DHT22;1865;50.918;7.092;2023-06-04T15:14:42;30.00;17.60
3699;DHT22;1865;50.918;7.092;2023-06-04T15:17:08;30.00;18.00
3699;DHT22;1865;50.918;7.092;2023-06-04T15:19:34;29.90;18.00
3699;DHT22;1865;50.918;7.092;2023-06-04T15:22:00;29.90;18.30
3699;DHT22;1865;50.918;7.092;2023-06-04T15:24:25;29.90;18.60
3699;DHT22;1865;50.918;7.092;2023-06-04T15:26:51;29.90;17.80
3699;DHT22;1865;50.918;7.092;2023-06-04T15:29:17;29.90;18.20
3699;DHT22;1865;50.918;7.092;2023-06-04T15:31:42;29.90;17.80
3699;DHT22;1865;50.918;7.092;2023-06-04T15:34:08;29.80;18.00
3699;DHT22;1865;50.918;7.092;2023-06-04T15:36:33;29.70;18.00
3699;DHT22;1865;50.918;7.092;2023-06-04T15:39:00;29.60;18.10
3699;DHT22;1865;50.918;7.092;2023-06-04T15:41:25;29.60;18.20
3699;DHT22;1865;50.918;7.092;2023-06-04T15:43:51;29.50;18.30
3699;DHT22;1865;50.918;7.092;2023-06-04T15:46:18;29.50;18.10
3699;DHT22;1865;50.918;7.092;2023-06-04T15:48:44;29.50;18.40
3699;DHT22;1865;50.918;7.092;2023-06-04T15:51:10;29.40;18.90
3699;DHT22;1865;50.918;7.092;2023-06-04T15:53:36;29.30;18.90
3699;DHT22;1865;50.918;7.092;2023-06-04T15:56:01;29.30;19.00
3699;DHT22;1865;50.918;7.092;2023-06-04T15:58:27;29.20;19.10
3699;DHT22;1865;50.918;7.092;2023-06-04T16:00:52;29.20;18.70
3699;DHT22;1865;50.918;7.092;2023-06-04T16:03:18;29.20;19.00
3699;DHT22;1865;50.918;7.092;2023-06-04T16:05:43;29.20;19.00